CYVR/YVR METAR and TAF weather

Enter ICAO airport designator
Station Type Date Time Source
CYVR METAR 2018/07/21 04:00 UTC NOAA

CYVR 210400Z 15003KT 110V250 30SM FEW080 18/12 A3012 RMK AC1 SLP201 DENSITY ALT 200FT


Station Type Date Time Source
CYVR Decoded METAR 2018/07/21 04:00 UTC NOAA

Vancouver International Air-Port, B. C., Canada (CYVR) 49-11N 123-10W 2M
Jul 21, 2018 - 12:00 AM EDT / 2018.07.21 0400 UTC
Wind: from the SSE (150 degrees) at 3 MPH (3 KT) (direction variable):0
Visibility: 30 mile(s):0
Sky conditions: mostly clear
Temperature: 64 F (18 C)
Dew Point: 53 F (12 C)
Relative Humidity: 67%
Pressure (altimeter): 30.12 in. Hg (1019 hPa)
ob: CYVR 210400Z 15003KT 110V250 30SM FEW080 18/12 A3012 RMK AC1 SLP201 DENSITY ALT 200FT
cycle: 4

Station Type Date Time Source
CYVR TAF 2018/07/21 03:42 UTC NOAA

TAF CYVR 210239Z 2103/2206 20008KT P6SM FEW050 FEW100
BECMG 2108/2110 VRB03KT
FM211200 08005KT P6SM SCT020
BECMG 2116/2118 27010KT
FM211800 27010KT P6SM FEW080
BECMG 2202/2204 VRB03KT
RMK NXT FCST BY 210600Z


Example: see airport list